createdAt,value
2018-06-18T00:00:43.754Z,96.70
2018-06-18T00:03:12.922Z,98.40
2018-06-18T00:08:11.510Z,99.90
2018-06-18T00:10:40.546Z,99.90
2018-06-18T00:13:10.187Z,99.90
2018-06-18T00:15:39.778Z,99.90
2018-06-18T00:18:08.835Z,99.90
2018-06-18T00:20:37.981Z,99.90
2018-06-18T00:23:08.151Z,99.90
2018-06-18T00:25:37.353Z,99.90
2018-06-18T00:28:06.493Z,99.90
2018-06-18T00:30:35.555Z,99.90
2018-06-18T00:33:05.162Z,99.90
2018-06-18T00:35:34.881Z,99.90
2018-06-18T00:38:04.018Z,99.90
2018-06-18T00:40:33.270Z,99.90
2018-06-18T00:43:02.336Z,99.90
2018-06-18T00:45:31.409Z,99.90
2018-06-18T00:48:00.460Z,99.90
2018-06-18T00:50:29.643Z,99.90
2018-06-18T00:52:58.889Z,99.90
2018-06-18T00:55:39.239Z,99.90
2018-06-18T01:00:38.104Z,99.90
2018-06-18T01:03:07.294Z,99.90
2018-06-18T01:05:36.548Z,99.90
2018-06-18T01:08:05.767Z,99.90
2018-06-18T01:10:34.932Z,99.90
2018-06-18T01:13:04.090Z,99.90
2018-06-18T01:15:33.135Z,99.90
2018-06-18T01:18:02.252Z,99.90
2018-06-18T01:20:31.436Z,99.90
2018-06-18T01:23:09.303Z,99.90
2018-06-18T01:25:39.381Z,99.90
2018-06-18T01:30:41.661Z,99.90
2018-06-18T01:33:10.861Z,99.90
2018-06-18T01:35:39.998Z,99.90
2018-06-18T01:38:09.045Z,99.90
2018-06-18T01:40:38.216Z,99.90
2018-06-18T01:43:07.288Z,99.90
2018-06-18T01:45:36.407Z,99.90
2018-06-18T01:48:05.414Z,99.90
2018-06-18T01:50:34.532Z,99.90
2018-06-18T01:53:08.284Z,99.90
2018-06-18T01:55:38.695Z,99.90
2018-06-18T01:58:07.791Z,99.90
2018-06-18T02:00:37.798Z,99.90
2018-06-18T02:03:06.916Z,99.90
2018-06-18T02:05:36.124Z,99.90
2018-06-18T02:08:06.137Z,99.90
2018-06-18T02:10:36.060Z,99.90
2018-06-18T02:13:05.233Z,99.90
2018-06-18T02:15:34.239Z,99.90
2018-06-18T02:18:03.317Z,99.90
2018-06-18T02:20:32.402Z,99.90
2018-06-18T02:23:01.517Z,99.90
2018-06-18T02:25:30.553Z,99.90
2018-06-18T02:28:05.939Z,99.90
2018-06-18T02:30:40.155Z,99.90
2018-06-18T02:33:14.407Z,99.90
2018-06-18T02:35:49.492Z,99.90
2018-06-18T02:38:26.901Z,99.90
2018-06-18T02:40:55.887Z,99.90
2018-06-18T02:43:24.901Z,99.90
2018-06-18T02:45:54.008Z,99.90
2018-06-18T02:48:23.055Z,99.90
2018-06-18T02:50:52.161Z,99.90
2018-06-18T02:53:21.122Z,99.90
2018-06-18T02:55:51.408Z,99.90
2018-06-18T02:58:21.131Z,99.90
2018-06-18T03:00:50.223Z,99.90
2018-06-18T03:03:19.195Z,99.90
2018-06-18T03:05:48.204Z,99.90
2018-06-18T03:08:17.236Z,99.90
2018-06-18T03:10:46.393Z,99.90
2018-06-18T03:13:15.493Z,99.90
2018-06-18T03:15:44.561Z,99.90
2018-06-18T03:18:18.879Z,99.90
2018-06-18T03:20:54.692Z,99.90
2018-06-18T03:23:29.107Z,99.90
2018-06-18T03:26:03.243Z,99.90
2018-06-18T03:28:37.766Z,99.90
2018-06-18T03:31:06.947Z,99.90
2018-06-18T03:33:36.202Z,99.90
2018-06-18T03:36:06.576Z,99.90
2018-06-18T03:38:35.679Z,99.90
2018-06-18T03:41:04.765Z,99.90
2018-06-18T03:43:36.261Z,99.90
2018-06-18T03:46:05.517Z,99.90
2018-06-18T03:48:34.576Z,99.90
2018-06-18T03:51:03.588Z,99.90
2018-06-18T03:53:32.631Z,99.90
2018-06-18T03:56:02.431Z,99.90
2018-06-18T03:58:31.392Z,99.90
2018-06-18T04:05:51.717Z,99.90
2018-06-18T04:08:20.825Z,99.90
2018-06-18T04:10:55.015Z,98.90
2018-06-18T04:13:24.020Z,98.00
2018-06-18T04:15:53.089Z,95.60
2018-06-18T04:18:22.193Z,95.60
2018-06-18T04:20:51.319Z,95.00
2018-06-18T04:23:20.333Z,95.50
2018-06-18T04:25:49.377Z,95.80
2018-06-18T04:28:18.406Z,97.20
2018-06-18T04:30:47.743Z,99.60
2018-06-18T04:33:20.140Z,98.60
2018-06-18T04:35:49.170Z,96.50
2018-06-18T04:38:18.259Z,96.30
2018-06-18T04:40:47.319Z,93.40
2018-06-18T04:43:21.533Z,93.60
2018-06-18T04:45:55.756Z,92.50
2018-06-18T04:48:30.124Z,92.90
2018-06-18T04:51:01.891Z,92.10
2018-06-18T04:53:31.279Z,91.40
2018-06-18T04:56:00.466Z,89.50
2018-06-18T04:58:29.586Z,85.20
2018-06-18T05:01:06.748Z,85.40
2018-06-18T05:03:35.758Z,83.10
2018-06-18T05:06:04.841Z,80.50
2018-06-18T05:11:08.019Z,75.40
2018-06-18T05:13:37.068Z,73.40
2018-06-18T05:16:06.234Z,73.00
2018-06-18T05:18:35.243Z,69.50
2018-06-18T05:21:04.300Z,66.80
2018-06-18T05:23:33.342Z,64.30
2018-06-18T05:26:02.557Z,62.40
2018-06-18T05:28:31.565Z,59.40
2018-06-18T05:31:01.499Z,57.80
2018-06-18T05:33:30.536Z,56.60
2018-06-18T05:35:59.495Z,54.00
2018-06-18T05:38:33.868Z,52.10
2018-06-18T05:41:02.847Z,49.80
2018-06-18T05:43:33.452Z,45.80
2018-06-18T05:46:02.432Z,42.40
2018-06-18T05:48:31.416Z,39.70
2018-06-18T05:51:00.383Z,35.20
2018-06-18T05:53:29.448Z,32.40
2018-06-18T05:55:58.403Z,30.20
2018-06-18T05:58:27.415Z,29.00
2018-06-18T06:00:56.429Z,28.00
2018-06-18T06:03:25.384Z,25.80
2018-06-18T06:05:54.464Z,25.10
2018-06-18T06:08:23.365Z,24.50
2018-06-18T06:10:52.326Z,23.90
2018-06-18T06:13:21.372Z,24.10
2018-06-18T06:15:50.406Z,27.80
2018-06-18T06:18:19.447Z,29.00
2018-06-18T06:20:51.444Z,30.00
2018-06-18T06:23:20.373Z,31.20
2018-06-18T06:25:49.374Z,33.70
2018-06-18T06:28:18.405Z,36.20
2018-06-18T06:30:47.401Z,38.90
2018-06-18T06:33:16.363Z,39.00
2018-06-18T06:35:46.285Z,40.10
2018-06-18T06:38:15.328Z,39.90
2018-06-18T06:40:44.477Z,41.40
2018-06-18T06:43:13.572Z,41.30
2018-06-18T06:45:42.720Z,41.30
2018-06-18T06:48:11.744Z,42.40
2018-06-18T06:50:40.756Z,44.20
2018-06-18T06:53:09.754Z,44.80
2018-06-18T06:55:38.705Z,44.40
2018-06-18T06:58:07.680Z,44.40
2018-06-18T07:00:36.684Z,44.60
2018-06-18T07:03:05.780Z,45.20
2018-06-18T07:05:34.878Z,45.80
2018-06-18T07:08:04.089Z,48.20
2018-06-18T07:10:33.708Z,48.50
2018-06-18T07:13:02.700Z,48.70
2018-06-18T07:15:32.355Z,48.90
2018-06-18T07:18:01.657Z,49.40
2018-06-18T07:20:30.806Z,49.00
2018-06-18T07:23:00.329Z,48.30
2018-06-18T07:25:29.527Z,46.90
2018-06-18T07:27:58.572Z,45.90
2018-06-18T07:30:27.564Z,44.90
2018-06-18T07:32:56.623Z,42.90
2018-06-18T07:35:25.634Z,42.10
2018-06-18T07:37:54.704Z,42.30
2018-06-18T07:40:23.665Z,38.90
2018-06-18T07:45:22.234Z,29.50
2018-06-18T07:47:51.236Z,26.70
2018-06-18T07:50:20.260Z,26.90
2018-06-18T07:52:49.256Z,25.80
2018-06-18T07:55:18.257Z,23.10
2018-06-18T07:57:47.338Z,22.30
2018-06-18T08:00:16.417Z,22.90
2018-06-18T08:02:45.679Z,25.20
2018-06-18T08:05:14.725Z,25.60
2018-06-18T08:10:12.322Z,21.60
2018-06-18T08:12:55.923Z,22.30
2018-06-18T08:15:24.931Z,22.50
2018-06-18T08:17:53.873Z,23.70
2018-06-18T08:20:22.923Z,24.80
2018-06-18T08:22:51.902Z,26.40
2018-06-18T08:25:21.088Z,27.60
2018-06-18T08:27:50.112Z,29.00
2018-06-18T08:30:19.244Z,31.40
2018-06-18T08:32:48.297Z,32.90
2018-06-18T08:35:17.606Z,32.20
2018-06-18T08:37:46.630Z,32.40
2018-06-18T08:40:15.693Z,32.90
2018-06-18T08:42:44.784Z,35.40
2018-06-18T08:45:13.827Z,38.80
2018-06-18T08:47:42.877Z,43.80
2018-06-18T08:50:17.097Z,46.10
2018-06-18T08:52:51.256Z,48.40
2018-06-18T08:55:25.313Z,50.80
2018-06-18T08:57:59.444Z,54.00
2018-06-18T09:00:33.839Z,56.60
2018-06-18T09:03:10.112Z,57.90
2018-06-18T09:05:47.609Z,59.70
2018-06-18T09:08:21.972Z,59.50
2018-06-18T09:10:52.084Z,55.20
2018-06-18T09:13:22.081Z,58.00
2018-06-18T09:15:50.997Z,57.50
2018-06-18T09:18:20.041Z,57.90
2018-06-18T09:20:49.097Z,56.60
2018-06-18T09:23:18.099Z,56.80
2018-06-18T09:25:52.452Z,52.80
2018-06-18T09:28:21.431Z,52.50
2018-06-18T09:30:51.018Z,50.70
2018-06-18T09:33:19.976Z,50.50
2018-06-18T09:35:48.980Z,51.90
2018-06-18T09:38:18.077Z,51.40
2018-06-18T09:40:47.132Z,50.60
2018-06-18T09:43:16.137Z,50.30
2018-06-18T09:45:45.138Z,48.50
2018-06-18T09:48:14.213Z,45.00
2018-06-18T09:50:48.221Z,45.20
2018-06-18T09:53:22.254Z,45.50
2018-06-18T09:55:58.907Z,43.90
2018-06-18T09:58:33.349Z,42.50
2018-06-18T10:01:10.240Z,41.90
2018-06-18T10:03:39.272Z,41.90
2018-06-18T10:06:08.853Z,42.40
2018-06-18T10:08:37.927Z,40.80
2018-06-18T10:11:07.866Z,39.50
2018-06-18T10:13:36.921Z,37.20
2018-06-18T10:16:06.240Z,35.90
2018-06-18T10:18:35.251Z,37.70
2018-06-18T10:23:32.955Z,36.50
2018-06-18T10:26:02.009Z,35.90
2018-06-18T10:28:30.984Z,36.30
2018-06-18T10:31:00.067Z,36.20
2018-06-18T10:33:34.416Z,34.60
2018-06-18T10:36:08.658Z,30.50
2018-06-18T10:38:42.808Z,30.30
2018-06-18T10:41:17.094Z,30.00
2018-06-18T10:43:46.120Z,31.00
2018-06-18T10:46:15.211Z,31.30
2018-06-18T10:48:44.234Z,32.50
2018-06-18T10:51:13.223Z,32.50
2018-06-18T10:56:10.816Z,29.80
2018-06-18T10:58:39.837Z,27.70
2018-06-18T11:01:10.951Z,26.90
2018-06-18T11:03:40.041Z,25.80
2018-06-18T11:06:14.376Z,25.40
2018-06-18T11:08:43.421Z,26.30
2018-06-18T11:11:12.397Z,24.40
2018-06-18T11:13:41.409Z,24.70
2018-06-18T11:16:10.593Z,26.20
2018-06-18T11:21:18.707Z,22.70
2018-06-18T11:23:53.024Z,23.30
2018-06-18T11:26:27.189Z,24.30
2018-06-18T11:28:56.176Z,23.50
2018-06-18T11:31:25.171Z,24.70
2018-06-18T11:33:54.222Z,25.10
2018-06-18T11:36:23.278Z,25.50
2018-06-18T11:38:52.305Z,26.30
2018-06-18T11:41:21.329Z,24.80
2018-06-18T11:43:50.318Z,23.70
2018-06-18T11:46:19.321Z,24.10
2018-06-18T11:48:48.373Z,25.10
2018-06-18T11:51:17.399Z,25.60
2018-06-18T11:54:00.852Z,25.70
2018-06-18T11:56:30.082Z,24.30
2018-06-18T11:59:04.300Z,24.00
2018-06-18T12:01:38.491Z,23.60
2018-06-18T12:04:12.865Z,23.50
2018-06-18T12:06:46.944Z,24.60
2018-06-18T12:09:21.137Z,24.70
2018-06-18T12:11:50.805Z,24.70
2018-06-18T12:14:19.784Z,24.20
2018-06-18T12:16:48.849Z,24.20
2018-06-18T12:19:17.946Z,24.00
2018-06-18T12:21:46.944Z,24.10
2018-06-18T12:24:16.064Z,24.50
2018-06-18T12:26:45.225Z,23.90
2018-06-18T12:29:14.272Z,24.40
2018-06-18T12:31:44.067Z,24.00
2018-06-18T12:34:13.124Z,24.00
2018-06-18T12:36:42.119Z,23.90
2018-06-18T12:39:11.836Z,23.60
2018-06-18T12:41:46.598Z,23.80
2018-06-18T12:44:17.894Z,23.80
2018-06-18T12:46:52.549Z,24.20
2018-06-18T12:49:27.782Z,24.60
2018-06-18T12:52:01.875Z,24.50
2018-06-18T12:54:36.071Z,25.00
2018-06-18T12:59:42.449Z,25.60
2018-06-18T13:02:17.854Z,25.10
2018-06-18T13:04:53.805Z,25.50
2018-06-18T13:07:23.496Z,25.20
2018-06-18T13:09:52.484Z,24.20
2018-06-18T13:12:21.498Z,24.40
2018-06-18T13:14:50.536Z,24.40
2018-06-18T13:17:19.562Z,24.80
2018-06-18T13:19:48.589Z,23.80
2018-06-18T13:22:17.638Z,23.50
2018-06-18T13:24:46.727Z,24.00
2018-06-18T13:27:15.702Z,25.00
2018-06-18T13:29:44.789Z,24.70
2018-06-18T13:32:13.922Z,24.80
2018-06-18T13:34:43.066Z,24.80
2018-06-18T13:37:17.255Z,25.40
2018-06-18T13:39:51.478Z,24.50
2018-06-18T13:42:25.801Z,25.80
2018-06-18T13:44:59.921Z,25.50
2018-06-18T13:47:34.065Z,25.60
2018-06-18T13:50:03.085Z,26.00
2018-06-18T13:52:32.158Z,25.70
2018-06-18T13:55:01.120Z,25.70
2018-06-18T13:57:30.130Z,25.10
2018-06-18T13:59:59.271Z,25.40
2018-06-18T14:02:28.363Z,25.60
2018-06-18T14:04:57.339Z,25.20
2018-06-18T14:07:26.523Z,25.20
2018-06-18T14:09:55.542Z,26.00
2018-06-18T14:14:53.156Z,24.90
2018-06-18T14:17:22.318Z,24.80
2018-06-18T14:19:56.470Z,23.70
2018-06-18T14:22:25.499Z,24.20
2018-06-18T14:24:54.914Z,24.20
2018-06-18T14:27:23.930Z,24.00
2018-06-18T14:29:58.022Z,24.60
2018-06-18T14:32:32.268Z,25.20
2018-06-18T14:35:06.416Z,25.70
2018-06-18T14:37:41.303Z,25.60
2018-06-18T14:40:12.567Z,25.90
2018-06-18T14:42:41.654Z,25.60
2018-06-18T14:45:10.688Z,25.60
2018-06-18T14:47:39.808Z,25.50
2018-06-18T14:50:09.929Z,25.10
2018-06-18T14:52:38.980Z,24.50
2018-06-18T14:55:09.173Z,24.30
2018-06-18T14:57:38.162Z,24.00
2018-06-18T15:00:37.862Z,24.20
2018-06-18T15:03:06.957Z,24.30
2018-06-18T15:05:41.057Z,25.30
2018-06-18T15:08:10.115Z,24.80
2018-06-18T15:10:44.283Z,24.60
2018-06-18T15:13:14.631Z,23.60
2018-06-18T15:15:48.958Z,23.90
2018-06-18T15:18:17.989Z,24.70
2018-06-18T15:20:46.937Z,24.10
2018-06-18T15:23:16.050Z,24.00
2018-06-18T15:25:48.129Z,24.10
2018-06-18T15:28:17.139Z,24.20
2018-06-18T15:30:46.125Z,23.80
2018-06-18T15:33:15.175Z,23.30
2018-06-18T15:35:44.193Z,22.90
2018-06-18T15:38:27.813Z,22.80
2018-06-18T15:40:56.790Z,23.30
2018-06-18T15:43:25.769Z,23.40
2018-06-18T15:45:54.821Z,23.10
2018-06-18T15:48:23.887Z,24.00
2018-06-18T15:50:52.952Z,24.20
2018-06-18T15:55:50.592Z,24.70
2018-06-18T15:58:19.577Z,25.10
2018-06-18T16:00:48.626Z,25.40
2018-06-18T16:03:17.676Z,26.10
2018-06-18T16:05:47.068Z,25.90
2018-06-18T16:08:16.139Z,26.00
2018-06-18T16:10:45.094Z,26.20
2018-06-18T16:13:14.109Z,25.10
2018-06-18T16:15:43.141Z,25.60
2018-06-18T16:18:12.209Z,26.00
2018-06-18T16:20:41.216Z,26.00
2018-06-18T16:23:10.241Z,25.90
2018-06-18T16:25:39.251Z,25.70
2018-06-18T16:28:08.340Z,25.10
2018-06-18T16:30:37.359Z,25.40
2018-06-18T16:33:06.378Z,25.70
2018-06-18T16:35:35.410Z,25.00
2018-06-18T16:38:04.471Z,24.90
2018-06-18T16:40:33.557Z,24.80
2018-06-18T16:43:02.564Z,24.70
2018-06-18T16:48:00.156Z,25.70
2018-06-18T16:50:29.229Z,26.10
2018-06-18T16:52:58.197Z,26.50
2018-06-18T16:55:27.245Z,26.60
2018-06-18T16:57:56.234Z,26.60
2018-06-18T17:00:25.261Z,26.40
2018-06-18T17:02:54.953Z,26.60
2018-06-18T17:05:23.944Z,26.70
2018-06-18T17:07:53.098Z,26.50
2018-06-18T17:10:22.129Z,26.90
2018-06-18T17:12:51.124Z,26.60
2018-06-18T17:15:20.237Z,27.30
2018-06-18T17:17:49.387Z,26.90
2018-06-18T17:20:18.462Z,26.80
2018-06-18T17:22:47.529Z,27.10
2018-06-18T17:25:16.576Z,27.20
2018-06-18T17:27:45.627Z,26.90
2018-06-18T17:30:14.783Z,27.40
2018-06-18T17:32:43.822Z,27.40
2018-06-18T17:35:12.947Z,27.60
2018-06-18T17:37:42.008Z,27.70
2018-06-18T17:40:11.099Z,27.90
2018-06-18T17:42:40.164Z,27.60
2018-06-18T17:45:09.793Z,28.10
2018-06-18T17:47:39.747Z,28.30
2018-06-18T17:50:08.850Z,28.70
2018-06-18T17:52:38.553Z,28.60
2018-06-18T17:55:07.704Z,29.00
2018-06-18T17:57:38.250Z,29.10
2018-06-18T18:00:07.508Z,29.60
2018-06-18T18:02:36.543Z,30.00
2018-06-18T18:05:05.552Z,30.00
2018-06-18T18:07:34.603Z,30.30
2018-06-18T18:10:03.742Z,30.30
2018-06-18T18:12:33.275Z,30.90
2018-06-18T18:15:02.292Z,31.30
2018-06-18T18:17:31.366Z,31.30
2018-06-18T18:20:00.434Z,31.80
2018-06-18T18:22:29.585Z,32.00
2018-06-18T18:24:58.575Z,32.00
2018-06-18T18:27:27.604Z,32.60
2018-06-18T18:29:56.634Z,33.00
2018-06-18T18:32:25.651Z,33.50
2018-06-18T18:34:54.631Z,33.60
2018-06-18T18:37:23.504Z,34.00
2018-06-18T18:39:52.483Z,34.00
2018-06-18T18:42:21.483Z,34.70
2018-06-18T18:44:50.523Z,35.10
2018-06-18T18:47:19.404Z,35.10
2018-06-18T18:49:48.316Z,35.40
2018-06-18T18:52:17.251Z,36.60
2018-06-18T18:55:59.022Z,35.90
2018-06-18T18:58:57.506Z,36.30
2018-06-18T19:01:27.623Z,36.50
2018-06-18T19:03:59.338Z,37.90
2018-06-18T19:06:28.325Z,37.20
2018-06-18T19:08:57.764Z,38.20
2018-06-18T19:11:27.129Z,37.60
2018-06-18T19:13:57.117Z,38.00
2018-06-18T19:18:58.606Z,38.50
2018-06-18T19:21:27.719Z,38.90
2018-06-18T19:23:57.343Z,39.00
2018-06-18T19:26:26.293Z,39.40
2018-06-18T19:28:55.246Z,39.70
2018-06-18T19:31:25.369Z,40.20
2018-06-18T19:34:04.035Z,40.30
2018-06-18T19:36:33.015Z,40.60
2018-06-18T19:39:01.944Z,40.70
2018-06-18T19:41:30.835Z,41.10
2018-06-18T19:43:59.806Z,41.20
2018-06-18T19:46:34.936Z,41.40
2018-06-18T19:49:09.124Z,41.40
2018-06-18T19:51:37.999Z,42.20
2018-06-18T19:54:09.992Z,42.80
2018-06-18T19:56:38.917Z,42.10
2018-06-18T19:59:07.820Z,42.70
2018-06-18T20:01:36.810Z,42.90
2018-06-18T20:04:05.780Z,43.00
2018-06-18T20:06:35.431Z,43.00
2018-06-18T20:09:06.343Z,43.20
2018-06-18T20:14:03.808Z,43.50
2018-06-18T20:16:32.737Z,43.90
2018-06-18T20:19:01.616Z,44.40
2018-06-18T20:21:35.364Z,44.30
2018-06-18T20:24:04.722Z,44.70
2018-06-18T20:26:33.940Z,45.00
2018-06-18T20:29:02.856Z,44.90
2018-06-18T20:31:31.810Z,45.00
2018-06-18T20:34:00.715Z,45.00
2018-06-18T20:36:34.042Z,45.10
2018-06-18T20:39:02.992Z,45.60
2018-06-18T20:41:31.908Z,46.10
2018-06-18T20:44:18.494Z,46.40
2018-06-18T20:46:47.388Z,46.20
2018-06-18T20:49:16.377Z,46.30
2018-06-18T20:51:45.683Z,46.70
2018-06-18T20:54:14.872Z,47.00
2018-06-18T20:56:43.805Z,47.40
2018-06-18T20:59:13.884Z,47.60
2018-06-18T21:01:42.779Z,46.90
2018-06-18T21:04:11.733Z,47.50
2018-06-18T21:06:40.671Z,47.50
2018-06-18T21:09:11.440Z,48.20
2018-06-18T21:11:40.503Z,47.60
2018-06-18T21:16:40.260Z,48.40
2018-06-18T21:19:09.156Z,47.90
2018-06-18T21:21:38.094Z,47.90
2018-06-18T21:24:08.854Z,47.80
2018-06-18T21:26:38.053Z,47.60
2018-06-18T21:29:07.202Z,48.10
2018-06-18T21:31:36.119Z,48.20
2018-06-18T21:34:05.114Z,48.30
2018-06-18T21:36:34.060Z,48.90
2018-06-18T21:39:03.323Z,49.10
2018-06-18T21:41:32.264Z,49.40
2018-06-18T21:44:01.132Z,49.90
2018-06-18T21:46:30.097Z,50.50
2018-06-18T21:48:59.012Z,50.40
2018-06-18T21:51:28.574Z,51.00
2018-06-18T21:53:58.384Z,51.70
2018-06-18T21:56:27.328Z,52.50
2018-06-18T21:58:56.272Z,53.10
2018-06-18T22:01:36.763Z,53.80
2018-06-18T22:04:06.061Z,54.60
2018-06-18T22:06:35.018Z,55.60
2018-06-18T22:09:05.893Z,56.40
2018-06-18T22:11:35.148Z,56.30
2018-06-18T22:14:04.703Z,57.00
2018-06-18T22:16:33.851Z,56.40
2018-06-18T22:19:02.724Z,56.30
2018-06-18T22:21:31.641Z,56.80
2018-06-18T22:24:00.588Z,56.30
2018-06-18T22:26:29.611Z,56.40
2018-06-18T22:28:58.498Z,57.00
2018-06-18T22:31:27.555Z,57.00
2018-06-18T22:33:56.463Z,57.00
2018-06-18T22:36:25.385Z,57.00
2018-06-18T22:38:54.328Z,57.00
2018-06-18T22:43:51.819Z,56.80
2018-06-18T22:46:20.744Z,56.70
2018-06-18T22:48:50.044Z,57.90
2018-06-18T22:51:18.975Z,58.10
2018-06-18T22:53:48.110Z,58.50
2018-06-18T22:56:16.981Z,59.30
2018-06-18T22:58:45.903Z,59.60
2018-06-18T23:01:14.862Z,59.90
2018-06-18T23:03:43.778Z,60.50
2018-06-18T23:06:12.676Z,61.90
2018-06-18T23:08:41.610Z,63.00
2018-06-18T23:11:10.567Z,65.20
2018-06-18T23:13:39.900Z,66.10
2018-06-18T23:16:09.820Z,67.50
2018-06-18T23:18:38.690Z,69.20
2018-06-18T23:21:07.700Z,69.00
2018-06-18T23:23:36.666Z,71.10
2018-06-18T23:26:05.627Z,72.20
2018-06-18T23:28:42.109Z,73.40
2018-06-18T23:31:11.020Z,73.20
2018-06-18T23:33:40.027Z,72.90
2018-06-18T23:36:08.951Z,71.60
2018-06-18T23:38:37.939Z,71.30
2018-06-18T23:41:07.129Z,71.00
2018-06-18T23:43:36.400Z,69.80
2018-06-18T23:46:05.588Z,69.80
2018-06-18T23:48:34.827Z,70.30
2018-06-18T23:51:03.971Z,70.10
2018-06-18T23:53:32.919Z,69.70
2018-06-18T23:56:02.565Z,70.80
2018-06-18T23:58:34.022Z,70.80
